Time;durP1;ratioP1;P1;durP2;ratioP2;P2;SDS_P1;SDS_P2;PMS_P1;PMS_P2;Temp;Humidity;BMP_temperature;BMP_pressure;BME280_temperature;BME280_humidity;BME280_pressure;Samples;Min_cycle;Max_cycle;Signal;HPM_P1;HPM_P2
2023/07/22 00:01:28;;;;;;;4.50;1.98;;;15.90;74.60;;;17.83;51.70;97580.00;5032479;28;20045;-53
2023/07/22 00:03:56;;;;;;;3.05;2.00;;;15.90;74.40;;;17.80;52.09;97577.75;5032397;28;20057;-58
2023/07/22 00:06:24;;;;;;;4.18;2.03;;;15.90;74.90;;;17.79;52.04;97584.97;5032279;28;20425;-58
2023/07/22 00:08:53;;;;;;;3.30;2.22;;;15.90;74.90;;;17.80;52.01;97583.97;5032324;28;20041;-58
2023/07/22 00:11:21;;;;;;;5.15;2.53;;;16.00;74.70;;;17.79;52.20;97579.59;5031206;28;20060;-57
2023/07/22 00:13:49;;;;;;;2.97;2.65;;;15.90;75.40;;;17.81;51.92;97582.91;5031987;28;20489;-59
2023/07/22 00:16:16;;;;;;;6.85;3.05;;;16.00;74.10;;;17.81;52.15;97582.09;5032243;28;20492;-59
2023/07/22 00:18:44;;;;;;;2.65;1.80;;;16.00;73.90;;;17.80;52.17;97589.34;5031793;28;20068;-59
2023/07/22 00:21:12;;;;;;;3.00;1.92;;;16.00;74.10;;;17.79;52.13;97590.38;5032099;28;20064;-59
2023/07/22 00:23:39;;;;;;;4.28;2.30;;;15.90;74.40;;;17.79;52.26;97578.78;5032278;28;20084;-58
2023/07/22 00:26:07;;;;;;;4.82;2.28;;;15.90;74.50;;;17.76;51.99;97581.88;5031025;28;20041;-59
2023/07/22 00:28:35;;;;;;;3.08;2.03;;;15.80;74.60;;;17.75;52.04;97583.75;5031713;28;20050;-58
2023/07/22 00:31:03;;;;;;;3.08;2.40;;;15.80;74.80;;;17.75;52.10;97580.22;5030284;28;20623;-59
2023/07/22 00:33:31;;;;;;;3.03;2.20;;;15.80;74.90;;;17.71;52.20;97575.25;5029621;28;20046;-59
2023/07/22 00:35:59;;;;;;;3.08;2.33;;;15.80;75.00;;;17.69;52.34;97576.50;5014395;28;20421;-59
2023/07/22 00:38:27;;;;;;;3.03;1.88;;;15.80;75.00;;;17.66;52.50;97571.53;5031587;28;20037;-59
2023/07/22 00:40:55;;;;;;;3.35;2.42;;;15.80;75.30;;;17.67;52.45;97578.59;5030450;28;20057;-59
2023/07/22 00:43:25;;;;;;;3.70;2.40;;;15.80;74.90;;;17.67;52.44;97574.00;5030344;28;20046;-58
2023/07/22 00:45:53;;;;;;;3.75;2.40;;;15.80;74.80;;;17.67;52.22;97571.31;5031772;28;20400;-59
2023/07/22 00:48:21;;;;;;;3.63;2.15;;;15.90;74.60;;;17.65;52.28;97573.41;5031248;28;20041;-59
2023/07/22 00:50:48;;;;;;;4.40;2.28;;;15.90;74.60;;;17.65;52.51;97577.97;5030392;28;20049;-59
2023/07/22 00:53:18;;;;;;;6.30;2.72;;;15.80;74.80;;;17.58;52.46;97569.88;5030562;28;20037;-59
2023/07/22 00:55:45;;;;;;;3.65;2.13;;;15.70;75.40;;;17.49;52.69;97568.44;5030594;28;20056;-58
2023/07/22 00:58:13;;;;;;;4.45;2.60;;;15.60;76.00;;;17.42;52.77;97565.75;5030938;28;20045;-60
2023/07/22 01:00:41;;;;;;;3.75;2.33;;;15.50;76.50;;;17.36;52.94;97571.94;5029955;28;20386;-59
2023/07/22 01:03:09;;;;;;;3.20;2.10;;;15.40;76.70;;;17.33;53.11;97561.59;5030395;28;20046;-59
2023/07/22 01:05:37;;;;;;;3.80;2.30;;;15.40;76.80;;;17.32;53.10;97562.63;5030228;28;20041;-58
2023/07/22 01:08:06;;;;;;;3.35;2.20;;;15.40;77.10;;;17.29;53.35;97561.19;5029565;28;20053;-59
2023/07/22 01:10:34;;;;;;;3.20;2.47;;;15.40;77.30;;;17.27;53.49;97565.97;5030489;28;20056;-58
2023/07/22 01:13:01;;;;;;;3.15;2.38;;;15.40;77.30;;;17.26;53.54;97566.97;5030401;28;20057;-58
2023/07/22 01:15:29;;;;;;;3.13;2.17;;;15.40;77.30;;;17.20;53.56;97559.75;5030064;28;20056;-59
2023/07/22 01:18:01;;;;;;;4.72;2.20;;;15.30;77.80;;;17.20;53.47;97566.97;5029765;28;20052;-59
2023/07/22 01:20:30;;;;;;;2.40;2.10;;;15.30;77.90;;;17.18;53.65;97555.59;5029516;28;20041;-60
2023/07/22 01:22:58;;;;;;;4.30;2.40;;;15.30;77.90;;;17.19;53.65;97562.63;5031213;28;20037;-59
2023/07/22 01:25:26;;;;;;;3.60;2.65;;;15.30;78.00;;;17.16;53.83;97557.66;5031585;28;20037;-60
2023/07/22 01:27:56;;;;;;;2.63;2.10;;;15.30;78.40;;;17.13;53.91;97554.34;5013389;28;20041;-59
2023/07/22 01:30:27;;;;;;;3.63;2.33;;;15.20;78.50;;;17.10;54.14;97557.44;5029694;28;20050;-59
2023/07/22 01:32:55;;;;;;;2.95;2.30;;;15.20;79.00;;;17.09;54.18;97553.09;5029674;28;20045;-58
2023/07/22 01:35:23;;;;;;;4.55;2.40;;;15.20;79.00;;;17.10;54.14;97548.56;5022310;28;20049;-56
2023/07/22 01:37:50;;;;;;;2.72;2.15;;;15.20;79.10;;;17.10;54.10;97556.63;5030132;28;20049;-58
2023/07/22 01:40:18;;;;;;;5.28;2.53;;;15.20;79.00;;;17.07;54.07;97555.16;5029656;28;20056;-59
2023/07/22 01:42:46;;;;;;;3.83;2.60;;;15.20;79.40;;;17.05;54.22;97551.03;5029960;28;20072;-58
2023/07/22 01:45:13;;;;;;;5.20;2.15;;;15.10;79.50;;;17.03;54.30;97553.91;5030136;28;20037;-59
2023/07/22 01:47:41;;;;;;;4.38;2.42;;;15.10;79.80;;;16.99;54.52;97549.16;5030753;28;20042;-58
2023/07/22 01:50:10;;;;;;;4.45;2.50;;;15.10;80.10;;;16.95;54.34;97545.22;5029656;28;20425;-58
2023/07/22 01:52:37;;;;;;;3.92;2.38;;;15.00;80.40;;;16.89;54.75;97549.56;5029261;28;20424;-58
2023/07/22 01:55:06;;;;;;;4.47;2.83;;;15.00;80.90;;;16.89;54.85;97553.06;5030014;28;20046;-58
2023/07/22 01:57:34;;;;;;;3.45;2.55;;;15.00;81.00;;;16.86;54.62;97536.50;5029947;28;20049;-58
2023/07/22 02:00:05;;;;;;;5.00;2.88;;;14.90;81.00;;;16.84;54.88;97539.41;5029506;28;20052;-59
2023/07/22 02:02:39;;;;;;;3.95;2.38;;;14.90;81.20;;;16.83;54.67;97534.25;5031616;28;20046;-58
2023/07/22 02:05:12;;;;;;;3.63;2.50;;;14.90;81.20;;;16.81;54.83;97536.25;5029289;28;20045;-59
2023/07/22 02:07:39;;;;;;;3.75;2.22;;;14.90;81.60;;;16.81;54.81;97538.94;5029424;28;20041;-58
2023/07/22 02:10:09;;;;;;;5.15;2.72;;;14.90;81.50;;;16.84;54.70;97536.69;5029663;28;20072;-57
2023/07/22 02:12:37;;;;;;;3.65;2.60;;;15.00;81.20;;;16.87;54.53;97543.56;5032855;28;20251;-57
2023/07/22 02:15:06;;;;;;;3.15;2.22;;;14.90;80.70;;;16.89;54.45;97549.56;5034344;28;20048;-58
2023/07/22 02:17:34;;;;;;;4.07;2.38;;;15.00;80.40;;;16.88;54.61;97547.88;5032834;28;20053;-58
2023/07/22 02:20:02;;;;;;;3.10;1.98;;;15.00;80.30;;;16.83;54.79;97558.44;5033816;28;20042;-59
2023/07/22 02:22:30;;;;;;;3.92;2.25;;;14.90;80.90;;;16.80;54.79;97548.88;5033979;28;20042;-58
2023/07/22 02:24:57;;;;;;;6.15;3.05;;;14.90;80.90;;;16.81;54.76;97550.53;5034568;28;20046;-58
2023/07/22 02:27:25;;;;;;;3.28;2.20;;;14.90;80.70;;;16.83;54.68;97550.38;5032316;28;20045;-59
2023/07/22 02:29:52;;;;;;;2.88;2.22;;;14.90;80.50;;;16.82;54.79;97554.91;5016919;28;20088;-57
2023/07/22 02:32:21;;;;;;;3.60;3.05;;;15.00;80.40;;;16.80;54.68;97550.75;5034824;28;20046;-59
2023/07/22 02:34:49;;;;;;;3.90;2.22;;;14.90;80.50;;;16.82;54.60;97554.09;5034242;28;20059;-57
2023/07/22 02:37:17;;;;;;;4.20;2.17;;;15.00;80.30;;;16.84;54.64;97558.22;5031656;28;20060;-58
2023/07/22 02:39:44;;;;;;;3.28;2.30;;;15.00;80.20;;;16.86;54.51;97564.22;5034322;28;20045;-59
2023/07/22 02:42:12;;;;;;;5.40;3.20;;;15.00;80.20;;;16.86;54.60;97560.69;5033139;28;20050;-58
2023/07/22 02:44:40;;;;;;;3.05;2.20;;;15.00;80.20;;;16.82;54.79;97560.28;5033074;28;20034;-58
2023/07/22 02:47:08;;;;;;;3.80;2.67;;;15.00;80.50;;;16.77;55.10;97557.34;5032325;28;20059;-58
2023/07/22 02:49:36;;;;;;;4.30;2.53;;;14.90;81.00;;;16.69;55.13;97555.69;5034541;28;20052;-59
2023/07/22 02:52:04;;;;;;;4.22;2.40;;;14.80;81.30;;;16.62;55.35;97559.38;5032550;28;20385;-59
2023/07/22 02:54:32;;;;;;;3.97;2.80;;;14.70;82.10;;;16.54;55.60;97563.06;5032339;28;20509;-58
2023/07/22 02:57:00;;;;;;;4.22;2.45;;;14.60;82.70;;;16.47;55.71;97559.53;5015900;28;20129;-59
2023/07/22 02:59:27;;;;;;;3.83;2.50;;;14.50;83.40;;;16.48;55.75;97563.88;5031946;28;20496;-59
2023/07/22 03:01:57;;;;;;;3.88;3.10;;;14.50;83.80;;;16.50;55.62;97556.44;5033798;28;20420;-59
2023/07/22 03:04:24;;;;;;;6.13;3.30;;;14.60;83.60;;;16.52;55.49;97557.06;5032865;28;20057;-59
2023/07/22 03:06:52;;;;;;;6.15;2.75;;;14.60;83.30;;;16.54;55.30;97557.69;5031485;28;20064;-58
2023/07/22 03:09:21;;;;;;;3.20;2.40;;;14.70;82.80;;;16.57;55.45;97554.59;5032484;28;20045;-59
2023/07/22 03:11:49;;;;;;;3.38;2.67;;;14.70;82.40;;;16.57;55.34;97553.78;5032688;28;20217;-59
2023/07/22 03:14:17;;;;;;;4.03;2.30;;;14.70;82.60;;;16.59;55.23;97551.72;5031941;28;20500;-59
2023/07/22 03:16:45;;;;;;;3.25;2.35;;;14.70;82.40;;;16.60;55.38;97554.19;5031906;28;20079;-58
2023/07/22 03:19:13;;;;;;;4.22;2.53;;;14.80;82.10;;;16.62;55.28;97548.63;5032308;28;20046;-58
2023/07/22 03:21:40;;;;;;;4.93;2.85;;;14.80;82.10;;;16.65;55.13;97553.59;5033028;28;20034;-59
2023/07/22 03:24:08;;;;;;;4.05;2.55;;;14.80;81.80;;;16.61;55.38;97546.97;5032117;28;20528;-58
2023/07/22 03:26:36;;;;;;;5.70;2.83;;;14.70;82.30;;;16.61;55.39;97541.59;5031270;28;20398;-58
2023/07/22 03:29:05;;;;;;;3.95;2.47;;;14.70;82.30;;;16.61;55.36;97544.28;5033267;28;20045;-58
2023/07/22 03:31:33;;;;;;;4.30;2.38;;;14.70;82.30;;;16.61;55.36;97546.97;5008050;28;20046;-58
2023/07/22 03:34:00;;;;;;;3.67;2.40;;;14.70;82.50;;;16.59;55.46;97539.09;5029479;28;20041;-58
2023/07/22 03:36:28;;;;;;;3.85;2.38;;;14.70;82.40;;;16.58;55.45;97540.13;5032504;28;20052;-56
2023/07/22 03:38:56;;;;;;;5.15;2.42;;;14.70;82.40;;;16.56;55.57;97542.19;5033197;28;20049;-58
2023/07/22 03:41:24;;;;;;;4.43;2.38;;;14.70;82.60;;;16.56;55.53;97544.06;5031769;28;20390;-57
2023/07/22 03:43:51;;;;;;;3.70;2.38;;;14.70;82.60;;;16.57;55.60;97540.34;5031898;28;20127;-58
2023/07/22 03:46:19;;;;;;;4.05;2.70;;;14.80;82.60;;;16.58;55.61;97544.69;5032644;28;20428;-59
2023/07/22 03:48:47;;;;;;;7.15;2.83;;;14.80;83.00;;;16.58;55.55;97544.69;5030883;28;20038;-57
2023/07/22 03:51:14;;;;;;;3.70;2.67;;;14.70;82.30;;;16.56;55.37;97544.88;5031487;28;20412;-56
2023/07/22 03:53:47;;;;;;;5.20;2.70;;;14.70;82.40;;;16.50;55.51;97548.38;5032085;28;20045;-55
2023/07/22 03:56:15;;;;;;;3.38;2.45;;;14.60;83.00;;;16.41;55.89;97541.53;5031183;28;20053;-58
2023/07/22 03:58:42;;;;;;;5.43;2.72;;;14.50;83.80;;;16.39;55.97;97543.59;5031131;28;20053;-56
2023/07/22 04:01:13;;;;;;;3.95;2.25;;;14.50;84.20;;;16.33;56.13;97547.91;5031243;28;20425;-57
2023/07/22 04:03:41;;;;;;;3.67;2.35;;;14.40;84.50;;;16.24;56.44;97551.78;5031247;28;20052;-58
2023/07/22 04:06:09;;;;;;;3.78;2.40;;;14.40;85.30;;;16.10;57.02;97553.56;5031415;28;20057;-56
2023/07/22 04:08:36;;;;;;;3.58;2.05;;;14.30;86.00;;;16.07;57.01;97541.38;5031780;28;20037;-57
2023/07/22 04:11:04;;;;;;;4.18;2.00;;;14.30;86.10;;;16.16;56.73;97547.41;5031268;28;20501;-56
2023/07/22 04:13:32;;;;;;;3.20;2.35;;;14.40;85.30;;;16.26;56.81;97544.34;5031745;28;20053;-56
2023/07/22 04:16:00;;;;;;;3.67;2.33;;;14.60;84.40;;;16.33;56.54;97551.41;5014423;28;20060;-57
2023/07/22 04:18:34;;;;;;;3.38;2.15;;;14.60;84.20;;;16.40;56.21;97554.13;5031756;28;20052;-59
2023/07/22 04:21:01;;;;;;;3.15;2.25;;;14.70;83.90;;;16.45;56.27;97553.53;5031146;28;20045;-58
2023/07/22 04:23:31;;;;;;;4.60;2.45;;;14.70;83.20;;;16.50;56.04;97549.22;5030593;28;20060;-58
2023/07/22 04:26:01;;;;;;;3.25;2.70;;;14.80;82.80;;;16.55;55.76;97545.91;5032291;28;20041;-58
2023/07/22 04:28:29;;;;;;;3.15;1.90;;;14.80;82.40;;;16.56;56.02;97552.94;5030182;28;20049;-58
2023/07/22 04:30:58;;;;;;;3.15;2.40;;;14.80;82.60;;;16.57;55.82;97546.53;5031430;28;20068;-59
2023/07/22 04:33:27;;;;;;;3.67;2.20;;;14.80;82.50;;;16.57;55.78;97551.09;5030660;28;20050;-58
2023/07/22 04:35:59;;;;;;;4.63;2.50;;;14.80;82.40;;;16.59;55.85;97549.84;5029366;28;20060;-57
2023/07/22 04:38:27;;;;;;;3.15;2.42;;;14.80;82.60;;;16.65;55.47;97541.00;5030010;28;20425;-57
2023/07/22 04:40:54;;;;;;;6.38;2.83;;;14.90;82.10;;;16.70;55.42;97551.94;5031849;28;20409;-58
2023/07/22 04:43:22;;;;;;;4.70;1.85;;;15.00;81.50;;;16.72;55.51;97549.06;5031834;28;20041;-58
2023/07/22 04:45:52;;;;;;;3.13;2.30;;;15.00;81.50;;;16.72;55.33;97549.06;5031863;28;20052;-58
2023/07/22 04:48:22;;;;;;;4.13;2.38;;;15.00;81.40;;;16.73;55.54;97550.72;5031329;28;20053;-58
2023/07/22 04:50:51;;;;;;;3.00;2.22;;;15.00;81.50;;;16.76;55.37;97550.31;5030451;28;20433;-58
2023/07/22 04:53:19;;;;;;;5.38;2.55;;;15.00;81.30;;;16.76;55.60;97558.38;5031708;28;20045;-58
2023/07/22 04:55:46;;;;;;;3.80;2.50;;;15.10;81.20;;;16.81;55.49;97566.66;5031609;28;20105;-59
2023/07/22 04:58:14;;;;;;;4.80;2.60;;;15.20;81.30;;;16.82;55.37;97562.16;5031225;28;20041;-58
2023/07/22 05:00:43;;;;;;;3.72;2.30;;;15.20;81.10;;;16.84;55.45;97560.09;5031636;28;20049;-58
2023/07/22 05:03:10;;;;;;;6.45;3.17;;;15.10;81.20;;;16.87;55.60;97565.06;5031542;28;20380;-58
2023/07/22 05:05:38;;;;;;;5.60;2.63;;;15.20;81.40;;;16.88;55.65;97567.53;5031648;28;20033;-58
2023/07/22 05:08:08;;;;;;;3.70;2.42;;;15.20;81.30;;;16.91;55.64;97561.75;5030886;28;20064;-59
2023/07/22 05:10:37;;;;;;;4.20;2.65;;;15.30;81.30;;;16.96;55.43;97563.00;5046560;28;20050;-58
2023/07/22 05:13:05;;;;;;;3.35;2.30;;;15.30;81.10;;;16.99;55.38;97558.03;5031450;28;20045;-59
2023/07/22 05:15:33;;;;;;;4.72;2.60;;;15.30;80.70;;;17.00;55.49;97572.31;5031495;28;20053;-58
2023/07/22 05:18:01;;;;;;;4.53;2.92;;;15.30;80.60;;;16.97;55.35;97572.75;5031525;28;20042;-57
2023/07/22 05:20:28;;;;;;;4.38;2.38;;;15.30;80.80;;;16.99;55.52;97573.38;5029442;28;20057;-59
2023/07/22 05:22:56;;;;;;;4.68;2.42;;;15.30;80.80;;;17.00;55.42;97573.16;5031454;28;20049;-59
2023/07/22 05:25:24;;;;;;;3.13;2.72;;;15.30;80.40;;;17.03;55.32;97580.00;5031196;28;20570;-58
2023/07/22 05:27:52;;;;;;;3.53;2.30;;;15.40;79.90;;;17.07;55.23;97576.69;5031015;28;20037;-59
2023/07/22 05:30:20;;;;;;;4.28;1.92;;;15.50;79.80;;;17.13;55.21;97580.41;5031447;28;20049;-58
2023/07/22 05:33:02;;;;;;;2.97;1.90;;;15.50;79.30;;;17.19;54.93;97584.16;5031581;28;20045;-55
2023/07/22 05:35:30;;;;;;;4.72;2.33;;;15.60;79.10;;;17.24;54.81;97579.00;5030230;28;20057;-58
2023/07/22 05:37:57;;;;;;;2.15;1.77;;;15.70;78.40;;;17.29;54.64;97582.72;5030816;28;20038;-58
2023/07/22 05:40:25;;;;;;;3.75;2.00;;;15.70;77.60;;;17.32;54.30;97587.69;5031385;28;20049;-58
2023/07/22 05:42:53;;;;;;;3.15;1.90;;;15.70;77.20;;;17.35;54.50;97581.06;5030053;28;20500;-59
2023/07/22 05:45:20;;;;;;;3.42;2.03;;;15.80;77.30;;;17.39;54.22;97584.16;5030959;28;20191;-54
2023/07/22 05:47:48;;;;;;;3.95;2.53;;;15.90;76.70;;;17.43;54.53;97596.19;5033949;28;20064;-54
2023/07/22 05:50:16;;;;;;;3.60;2.40;;;15.90;76.70;;;17.48;54.21;97597.19;5035195;28;20472;-57
2023/07/22 05:52:43;;;;;;;3.30;2.10;;;16.00;76.20;;;17.53;54.09;97591.22;5035027;28;20048;-58
2023/07/22 05:55:11;;;;;;;3.80;2.50;;;16.00;75.90;;;17.60;54.05;97599.28;5025122;28;20053;-57
2023/07/22 05:57:39;;;;;;;2.30;2.08;;;16.10;75.70;;;17.67;53.81;97594.72;5034564;28;20064;-57
2023/07/22 06:00:08;;;;;;;3.03;1.90;;;16.20;75.20;;;17.71;53.78;97598.66;5033931;28;20050;-55
2023/07/22 06:02:40;;;;;;;3.47;2.25;;;16.30;74.40;;;17.78;53.64;97595.97;5034666;28;20041;-58
2023/07/22 06:05:08;;;;;;;3.65;2.13;;;16.30;74.40;;;17.82;53.43;97594.53;5034979;28;20160;-56
2023/07/22 06:07:36;;;;;;;2.90;1.88;;;16.50;73.90;;;17.86;53.37;97596.59;5034088;28;20042;-59
2023/07/22 06:10:05;;;;;;;3.45;2.60;;;16.50;73.40;;;17.94;53.36;97594.75;5034758;28;20041;-57
2023/07/22 06:12:33;;;;;;;3.50;2.92;;;16.60;73.20;;;18.01;53.21;97599.09;5034419;28;20045;-55
2023/07/22 06:15:00;;;;;;;5.07;2.10;;;16.70;73.00;;;18.09;53.00;97603.44;5034580;28;20053;-59
2023/07/22 06:17:28;;;;;;;3.17;1.90;;;16.80;72.60;;;18.17;52.92;97602.38;5034018;28;20389;-55
2023/07/22 06:19:56;;;;;;;3.50;1.77;;;16.90;72.30;;;18.22;52.79;97610.63;5034257;28;20045;-51
2023/07/22 06:22:23;;;;;;;3.53;2.00;;;17.00;71.70;;;18.24;52.84;97605.84;5034084;28;20489;-56
2023/07/22 06:24:52;;;;;;;2.92;2.10;;;17.00;71.50;;;18.33;52.67;97604.59;5034461;28;20037;-57
2023/07/22 06:27:19;;;;;;;3.13;2.40;;;17.10;71.40;;;18.41;52.45;97606.25;5034054;28;20041;-54
2023/07/22 06:29:47;;;;;;;2.80;2.15;;;17.10;71.00;;;18.49;52.50;97616.78;5033989;28;20068;-55
2023/07/22 06:32:14;;;;;;;4.22;3.00;;;17.20;71.00;;;18.54;52.35;97616.97;5034331;28;20053;-58
2023/07/22 06:34:42;;;;;;;3.20;1.80;;;17.30;70.70;;;18.58;52.28;97614.69;5030423;28;20056;-56
2023/07/22 06:37:09;;;;;;;3.65;2.28;;;17.30;70.10;;;18.62;52.01;97607.81;5033737;28;20045;-58
2023/07/22 06:39:37;;;;;;;4.93;2.28;;;17.40;70.10;;;18.68;51.98;97615.88;5032772;28;20052;-57
2023/07/22 06:42:05;;;;;;;4.45;2.45;;;17.40;69.80;;;18.75;51.65;97615.03;5034089;28;20512;-58
2023/07/22 06:44:32;;;;;;;3.63;2.42;;;17.50;69.00;;;18.79;51.62;97608.19;5033961;28;20057;-57
2023/07/22 06:47:00;;;;;;;2.63;1.85;;;17.50;69.00;;;18.85;50.88;97616.25;5033248;28;20045;-58
2023/07/22 06:49:28;;;;;;;3.28;1.85;;;17.60;67.70;;;18.93;50.65;97615.19;5033847;28;20037;-54
2023/07/22 06:51:55;;;;;;;3.50;1.98;;;17.70;67.50;;;19.00;50.27;97618.69;5030511;28;20041;-58
2023/07/22 06:54:23;;;;;;;2.72;1.95;;;17.70;66.40;;;19.06;49.95;97620.50;5033251;28;20041;-56
2023/07/22 06:56:51;;;;;;;3.15;1.92;;;17.80;65.40;;;19.13;49.66;97616.94;5033217;28;20052;-58
2023/07/22 06:59:18;;;;;;;4.13;2.00;;;17.80;65.20;;;19.20;49.57;97604.25;5031290;28;20037;-57
2023/07/22 07:01:46;;;;;;;3.15;1.90;;;17.90;65.10;;;19.27;49.47;97613.94;5029581;28;20049;-59
2023/07/22 07:04:14;;;;;;;3.35;2.15;;;18.00;64.80;;;19.34;49.45;97610.38;5030634;28;20049;-55
2023/07/22 07:06:42;;;;;;;2.80;1.90;;;18.10;64.50;;;19.39;49.23;97613.25;5026915;28;20416;-56
2023/07/22 07:09:10;;;;;;;4.47;1.95;;;18.20;63.90;;;19.43;49.17;97612.59;5023035;28;20053;-57
2023/07/22 07:11:38;;;;;;;2.80;1.75;;;18.20;63.70;;;19.50;48.84;97614.41;5031597;28;20527;-58
2023/07/22 07:14:05;;;;;;;3.15;2.20;;;18.30;63.60;;;19.54;48.48;97613.78;5033672;28;20413;-59
2023/07/22 07:16:33;;;;;;;2.38;1.70;;;18.30;62.80;;;19.58;48.55;97612.28;5033248;28;20053;-59
2023/07/22 07:19:02;;;;;;;3.53;1.90;;;18.40;62.80;;;19.61;48.36;97614.53;5034274;28;20053;-59
2023/07/22 07:21:29;;;;;;;2.30;1.95;;;18.50;62.80;;;19.66;48.50;97611.19;5032155;28;20421;-59
2023/07/22 07:23:57;;;;;;;2.63;2.17;;;18.50;62.90;;;19.72;48.86;97610.34;5032110;28;20051;-57
2023/07/22 07:26:25;;;;;;;2.90;2.00;;;18.60;63.70;;;19.76;48.81;97610.72;5032138;28;20412;-58
2023/07/22 07:28:53;;;;;;;4.35;1.90;;;18.60;62.10;;;19.80;48.37;97615.44;5033509;28;20037;-59
2023/07/22 07:31:21;;;;;;;3.95;2.08;;;18.70;62.50;;;19.84;48.29;97618.53;5033150;28;20041;-57
2023/07/22 07:33:49;;;;;;;2.78;1.95;;;18.80;62.50;;;19.92;48.60;97614.72;5033497;28;20048;-58
2023/07/22 07:36:17;;;;;;;2.63;2.28;;;18.80;62.50;;;19.96;48.35;97616.75;5033010;28;20465;-58
2023/07/22 07:38:44;;;;;;;3.08;2.70;;;18.90;62.20;;;20.01;48.39;97616.13;5032364;28;20520;-57
2023/07/22 07:41:12;;;;;;;4.47;2.08;;;18.90;62.20;;;20.06;48.46;97619.81;5033157;28;20690;-60
2023/07/22 07:43:41;;;;;;;5.15;2.78;;;19.00;62.20;;;20.12;48.45;97628.03;5032729;28;20053;-59
2023/07/22 07:46:17;;;;;;;2.75;1.90;;;19.00;62.90;;;20.19;48.89;97626.13;5032721;28;20046;-58
2023/07/22 07:49:00;;;;;;;4.60;2.55;;;19.10;63.70;;;20.22;48.92;97623.78;5031190;28;20060;-59
2023/07/22 07:51:30;;;;;;;2.88;2.10;;;19.10;63.80;;;20.30;49.12;97625.38;5032994;28;20044;-56
2023/07/22 07:53:59;;;;;;;4.68;2.15;;;19.20;64.10;;;20.36;49.14;97624.47;5024338;28;20455;-58
2023/07/22 07:56:27;;;;;;;2.97;2.05;;;19.30;64.00;;;20.39;49.01;97628.59;5032062;28;20045;-59
2023/07/22 07:58:55;;;;;;;2.95;2.13;;;19.30;63.50;;;20.42;48.96;97620.88;5033034;28;20045;-57
2023/07/22 08:01:23;;;;;;;4.78;2.20;;;19.30;63.40;;;20.48;48.72;97621.03;5032667;28;20053;-58
2023/07/22 08:03:51;;;;;;;3.08;2.47;;;19.40;63.30;;;20.53;49.09;97632.84;5031059;28;20045;-57
2023/07/22 08:06:19;;;;;;;3.70;2.45;;;19.40;64.10;;;20.58;49.36;97629.44;5032634;28;20048;-59
2023/07/22 08:08:47;;;;;;;3.60;2.30;;;19.50;64.10;;;20.63;49.42;97632.34;5032117;28;20048;-51
2023/07/22 08:11:15;;;;;;;3.40;2.22;;;19.50;64.30;;;20.65;48.85;97619.41;5032561;28;20056;-52
2023/07/22 08:13:44;;;;;;;4.32;2.47;;;19.60;63.60;;;20.70;49.20;97627.66;5031206;28;20508;-50
2023/07/22 08:16:13;;;;;;;4.07;2.30;;;19.60;63.60;;;20.75;49.06;97619.69;5032244;28;20056;-53
2023/07/22 08:18:41;;;;;;;2.83;2.22;;;19.70;63.50;;;20.81;48.69;97628.78;5031669;28;20053;-50
2023/07/22 08:21:09;;;;;;;3.17;2.20;;;19.70;63.40;;;20.87;48.53;97622.47;5032454;28;20049;-48
2023/07/22 08:23:37;;;;;;;3.85;2.40;;;19.80;63.10;;;20.90;48.99;97622.00;5031876;28;20064;-45
2023/07/22 08:26:05;;;;;;;3.63;2.20;;;19.80;63.30;;;20.92;48.82;97621.75;5032258;28;20045;-46
2023/07/22 08:28:34;;;;;;;2.75;2.10;;;20.00;63.10;;;20.96;48.93;97621.09;5016359;28;20061;-45
2023/07/22 08:31:02;;;;;;;4.50;2.25;;;20.00;62.80;;;20.98;48.87;97635.22;5026370;28;20041;-47
2023/07/22 08:33:30;;;;;;;3.35;2.30;;;19.90;62.70;;;20.99;48.64;97634.16;5031222;28;20045;-46
2023/07/22 08:36:11;;;;;;;3.08;2.15;;;19.90;62.90;;;21.03;48.16;97621.00;5025695;28;20061;-45
2023/07/22 08:38:39;;;;;;;3.70;2.38;;;20.00;62.20;;;21.11;48.38;97628.81;5027533;28;20041;-45
2023/07/22 08:41:07;;;;;;;3.25;2.53;;;20.10;62.60;;;21.20;48.58;97621.19;5031175;28;20531;-48
2023/07/22 08:43:38;;;;;;;4.10;2.65;;;20.20;62.30;;;21.28;47.97;97612.72;5031024;28;20060;-49
2023/07/22 08:46:07;;;;;;;3.08;2.38;;;20.30;61.20;;;21.37;47.88;97613.25;5026013;28;20053;-46
2023/07/22 08:48:41;;;;;;;2.60;2.30;;;20.40;60.50;;;21.46;46.85;97608.34;5021694;28;20381;-45
2023/07/22 08:51:17;;;;;;;3.85;2.20;;;20.50;59.60;;;21.54;46.79;97608.84;5024582;28;20045;-46
2023/07/22 08:53:46;;;;;;;3.40;2.60;;;20.70;59.40;;;21.68;46.61;97611.34;5031422;28;20045;-45
2023/07/22 08:56:35;;;;;;;3.70;2.78;;;20.80;58.50;;;21.84;46.10;97605.22;5031904;28;20400;-46
2023/07/22 08:59:05;;;;;;;4.93;2.42;;;21.00;59.00;;;21.95;46.21;97607.13;5030919;28;20049;-46
2023/07/22 09:01:34;;;;;;;3.00;2.33;;;21.20;57.60;;;22.07;45.58;97606.31;5027671;28;20608;-47
2023/07/22 09:04:02;;;;;;;2.42;2.05;;;21.30;57.90;;;22.15;45.51;97606.75;5030563;28;20045;-54
2023/07/22 09:06:31;;;;;;;3.25;1.70;;;21.40;56.60;;;22.13;43.56;97606.16;5030281;28;20050;-51
2023/07/22 09:09:00;;;;;;;5.47;2.63;;;21.40;53.40;;;22.18;44.33;97611.72;5029798;28;20046;-49
2023/07/22 09:11:28;;;;;;;4.55;2.60;;;21.40;55.10;;;22.26;43.86;97610.56;5027735;28;20564;-53
2023/07/22 09:13:56;;;;;;;3.15;2.38;;;21.40;54.60;;;22.26;44.05;97601.63;5028409;28;20125;-52
2023/07/22 09:16:26;;;;;;;2.40;2.20;;;21.30;54.90;;;22.28;44.12;97610.34;5027297;28;20241;-52
2023/07/22 09:18:59;;;;;;;2.95;2.28;;;21.20;55.00;;;22.31;42.68;97609.84;5030857;28;20045;-51
2023/07/22 09:21:27;;;;;;;3.13;2.00;;;21.30;52.90;;;22.34;42.97;97609.38;5031673;28;20052;-52
2023/07/22 09:23:55;;;;;;;3.13;2.20;;;21.20;53.70;;;22.41;42.96;97612.78;5031330;28;20473;-50
2023/07/22 09:26:23;;;;;;;3.35;2.30;;;21.40;53.10;;;22.44;41.85;97612.31;5029881;28;20041;-52
2023/07/22 09:28:58;;;;;;;2.10;1.70;;;21.40;51.40;;;22.54;41.77;97608.97;5029840;28;20041;-50
2023/07/22 09:31:28;;;;;;;3.58;2.60;;;21.50;49.60;;;22.60;41.75;97608.03;5030908;28;20105;-48
2023/07/22 09:34:10;;;;;;;4.40;2.42;;;21.60;51.20;;;22.65;41.72;97608.13;5024708;28;20490;-54
2023/07/22 09:37:00;;;;;;;3.05;2.13;;;21.60;50.40;;;22.76;42.03;97596.44;5029435;28;20098;-49
2023/07/22 09:39:27;;;;;;;3.22;1.90;;;21.80;49.90;;;22.88;41.88;97601.81;5031308;28;20057;-53
2023/07/22 09:41:56;;;;;;;3.92;1.92;;;21.90;51.80;;;22.96;41.13;97589.75;5030153;28;20425;-46
2023/07/22 09:44:28;;;;;;;3.00;2.20;;;22.00;50.90;;;23.03;41.27;97592.34;5031438;28;20120;-45
2023/07/22 09:46:55;;;;;;;4.00;2.13;;;22.10;50.70;;;23.09;40.48;97592.22;5029321;28;20050;-48
2023/07/22 09:49:23;;;;;;;3.00;1.50;;;22.10;50.00;;;23.12;39.04;97596.31;5031321;28;20046;-45
2023/07/22 09:51:52;;;;;;;4.18;1.75;;;22.30;47.00;;;23.27;38.87;97585.75;5031167;28;20046;-48
2023/07/22 09:54:30;;;;;;;2.83;2.42;;;22.40;46.80;;;23.32;37.31;97588.56;5030083;28;20056;-47
2023/07/22 09:56:58;;;;;;;5.93;2.10;;;22.60;42.90;;;23.41;37.01;97591.69;5030670;28;20052;-51
2023/07/22 09:59:29;;;;;;;2.75;2.47;;;22.70;43.50;;;23.48;36.41;97584.22;5030969;28;20045;-47
2023/07/22 10:02:02;;;;;;;3.20;2.08;;;22.70;42.20;;;23.56;36.15;97580.25;5030933;28;20420;-47
2023/07/22 10:04:34;;;;;;;2.42;1.42;;;22.80;42.30;;;23.63;35.87;97572.75;5031125;28;20417;-45
2023/07/22 10:07:05;;;;;;;2.72;1.80;;;22.80;41.20;;;23.65;35.43;97577.94;5030380;28;20490;-49
2023/07/22 10:09:36;;;;;;;2.78;1.70;;;22.80;39.00;;;23.73;35.33;97572.94;5029910;28;20038;-43
2023/07/22 10:12:05;;;;;;;1.98;1.48;;;22.90;41.40;;;23.70;34.50;97575.31;5029507;28;20145;-45
2023/07/22 10:14:33;;;;;;;3.17;1.80;;;22.90;38.90;;;23.78;34.98;97585.81;5030963;28;20046;-43
2023/07/22 10:17:06;;;;;;;2.88;1.95;;;22.90;40.00;;;23.77;34.61;97576.81;5029325;28;20267;-47
2023/07/22 10:19:34;;;;;;;2.85;2.10;;;22.90;40.40;;;23.88;34.67;97576.97;5030992;28;20045;-45
2023/07/22 10:22:02;;;;;;;2.38;1.77;;;23.10;39.90;;;24.00;34.59;97582.31;5029724;28;20050;-46
2023/07/22 10:24:32;;;;;;;2.20;1.48;;;23.20;40.50;;;24.07;34.27;97582.97;5030894;28;20512;-45
2023/07/22 10:27:00;;;;;;;2.08;1.65;;;23.20;39.30;;;24.01;33.73;97579.34;5030361;28;20042;-45